createdAt,value
2023-01-21T00:01:13.195Z,37.85
2023-01-21T00:03:40.636Z,38.20
2023-01-21T00:06:07.706Z,35.45
2023-01-21T00:08:34.457Z,35.30
2023-01-21T00:11:14.406Z,37.40
2023-01-21T00:13:42.430Z,38.10
2023-01-21T00:16:09.876Z,40.60
2023-01-21T00:18:36.857Z,34.58
2023-01-21T00:21:03.742Z,38.17
2023-01-21T00:23:30.581Z,34.72
2023-01-21T00:26:03.006Z,33.75
2023-01-21T00:28:32.725Z,36.13
2023-01-21T00:31:01.331Z,32.28
2023-01-21T00:33:29.115Z,35.85
2023-01-21T00:36:02.993Z,38.78
2023-01-21T00:38:31.060Z,36.08
2023-01-21T00:41:07.303Z,42.03
2023-01-21T00:43:34.476Z,40.70
2023-01-21T00:46:01.718Z,39.45
2023-01-21T00:48:28.816Z,41.10
2023-01-21T00:51:00.338Z,43.80
2023-01-21T00:53:33.619Z,41.00
2023-01-21T00:56:02.366Z,41.00
2023-01-21T00:58:30.634Z,43.35
2023-01-21T01:01:19.957Z,44.50
2023-01-21T01:03:48.511Z,36.53
2023-01-21T01:06:19.356Z,33.33
2023-01-21T01:08:46.812Z,35.22
2023-01-21T01:11:14.412Z,42.28
2023-01-21T01:13:41.216Z,42.58
2023-01-21T01:16:08.993Z,42.47
2023-01-21T01:18:37.234Z,40.72
2023-01-21T01:21:05.747Z,43.70
2023-01-21T01:23:32.958Z,34.53
2023-01-21T01:26:07.474Z,42.22
2023-01-21T01:28:34.589Z,40.88
2023-01-21T01:31:04.606Z,34.60
2023-01-21T01:33:31.490Z,40.85
2023-01-21T01:36:21.060Z,33.97
2023-01-21T01:38:47.776Z,37.25
2023-01-21T01:41:23.577Z,40.70
2023-01-21T01:44:00.753Z,41.97
2023-01-21T01:46:36.714Z,37.22
2023-01-21T01:49:17.342Z,36.60
2023-01-21T01:51:53.600Z,43.35
2023-01-21T01:54:36.654Z,47.55
2023-01-21T01:57:07.110Z,34.25
2023-01-21T01:59:34.899Z,40.35
2023-01-21T02:02:08.090Z,39.45
2023-01-21T02:04:44.553Z,37.40
2023-01-21T02:07:11.776Z,40.15
2023-01-21T02:09:38.507Z,45.78
2023-01-21T02:12:06.574Z,40.35
2023-01-21T02:14:36.252Z,35.83
2023-01-21T02:17:53.708Z,34.42
2023-01-21T02:20:58.574Z,42.40
2023-01-21T02:23:46.520Z,40.10
2023-01-21T02:26:21.973Z,27.00
2023-01-21T02:29:26.494Z,40.20
2023-01-21T02:32:28.028Z,31.23
2023-01-21T02:35:07.595Z,46.08
2023-01-21T02:38:20.267Z,40.28
2023-01-21T02:41:13.994Z,40.42
2023-01-21T02:44:00.582Z,39.60
2023-01-21T02:46:59.348Z,42.08
2023-01-21T02:49:32.926Z,37.70
2023-01-21T02:51:59.687Z,48.70
2023-01-21T02:54:46.853Z,38.42
2023-01-21T02:57:38.513Z,35.83
2023-01-21T03:00:18.672Z,38.97
2023-01-21T03:03:15.906Z,36.08
2023-01-21T03:06:05.618Z,41.70
2023-01-21T03:08:57.712Z,43.22
2023-01-21T03:11:25.297Z,41.30
2023-01-21T03:14:51.017Z,43.15
2023-01-21T03:17:36.493Z,31.77
2023-01-21T03:20:13.300Z,43.30
2023-01-21T03:22:41.436Z,43.92
2023-01-21T03:25:11.780Z,42.70
2023-01-21T03:27:42.411Z,42.83
2023-01-21T03:30:18.862Z,39.00
2023-01-21T03:32:50.736Z,43.03
2023-01-21T03:35:33.923Z,35.63
2023-01-21T03:38:14.468Z,36.95
2023-01-21T03:40:59.719Z,33.78
2023-01-21T03:43:26.816Z,39.15
2023-01-21T03:46:04.979Z,36.65
2023-01-21T03:48:37.884Z,30.40
2023-01-21T03:51:15.098Z,36.50
2023-01-21T03:53:43.111Z,40.25
2023-01-21T03:56:09.821Z,44.25
2023-01-21T03:58:36.670Z,37.05
2023-01-21T04:01:03.471Z,36.67
2023-01-21T04:03:30.281Z,36.30
2023-01-21T04:05:57.079Z,38.17
2023-01-21T04:08:23.871Z,35.10
2023-01-21T04:10:50.573Z,40.67
2023-01-21T04:13:17.296Z,40.25
2023-01-21T04:15:44.029Z,41.20
2023-01-21T04:18:10.840Z,42.05
2023-01-21T04:20:37.603Z,40.42
2023-01-21T04:23:04.373Z,39.65
2023-01-21T04:25:31.135Z,38.90
2023-01-21T04:27:57.856Z,33.20
2023-01-21T04:30:24.582Z,36.55
2023-01-21T04:32:51.326Z,37.00
2023-01-21T04:35:18.123Z,33.00
2023-01-21T04:37:44.874Z,34.80
2023-01-21T04:40:12.677Z,35.97
2023-01-21T04:42:41.509Z,36.30
2023-01-21T04:45:09.211Z,43.92
2023-01-21T04:47:36.057Z,43.80
2023-01-21T04:50:04.706Z,50.53
2023-01-21T04:52:31.484Z,43.05
2023-01-21T04:54:58.217Z,39.03
2023-01-21T04:57:24.945Z,49.30
2023-01-21T04:59:51.663Z,44.55
2023-01-21T05:02:19.050Z,42.13
2023-01-21T05:04:45.833Z,37.33
2023-01-21T05:07:13.090Z,39.75
2023-01-21T05:09:39.832Z,35.97
2023-01-21T05:12:08.186Z,35.72
2023-01-21T05:14:35.093Z,43.90
2023-01-21T05:17:02.103Z,43.88
2023-01-21T05:19:28.962Z,45.90
2023-01-21T05:21:55.762Z,46.03
2023-01-21T05:24:22.517Z,46.17
2023-01-21T05:26:49.688Z,46.20
2023-01-21T05:29:17.048Z,53.55
2023-01-21T05:31:44.432Z,66.70
2023-01-21T05:34:12.277Z,49.03
2023-01-21T05:36:39.472Z,54.83
2023-01-21T06:02:01.575Z,34.25
2023-01-21T06:04:30.657Z,37.63
2023-01-21T06:06:57.857Z,38.47
2023-01-21T06:09:24.639Z,36.92
2023-01-21T06:11:51.454Z,42.15
2023-01-21T06:14:18.368Z,40.35
2023-01-21T06:16:45.252Z,47.15
2023-01-21T06:19:12.242Z,34.10
2023-01-21T06:21:38.999Z,46.15
2023-01-21T06:24:06.078Z,47.00
2023-01-21T06:26:34.124Z,46.60
2023-01-21T06:29:00.974Z,54.40
2023-01-21T06:31:27.883Z,48.38
2023-01-21T06:33:54.811Z,44.83
2023-01-21T06:36:21.720Z,39.40
2023-01-21T06:38:48.536Z,48.35
2023-01-21T06:41:15.356Z,48.53
2023-01-21T06:43:42.361Z,46.65
2023-01-21T06:46:10.615Z,48.40
2023-01-21T06:48:37.556Z,44.60
2023-01-21T06:51:04.710Z,40.67
2023-01-21T06:53:31.521Z,47.47
2023-01-21T06:55:58.296Z,48.40
2023-01-21T06:58:25.127Z,45.10
2023-01-21T07:00:51.924Z,43.08
2023-01-21T07:03:18.726Z,53.08
2023-01-21T07:05:45.540Z,47.40
2023-01-21T07:08:12.288Z,41.83
2023-01-21T07:10:39.071Z,47.35
2023-01-21T07:13:05.834Z,55.05
2023-01-21T07:15:32.706Z,38.85
2023-01-21T07:17:59.505Z,54.05
2023-01-21T07:20:26.451Z,48.30
2023-01-21T07:22:53.219Z,47.42
2023-01-21T07:25:20.293Z,45.28
2023-01-21T07:27:47.090Z,43.00
2023-01-21T07:30:20.071Z,46.22
2023-01-21T07:32:47.618Z,50.05
2023-01-21T07:35:15.132Z,46.00
2023-01-21T07:37:42.365Z,54.60
2023-01-21T07:40:10.172Z,49.35
2023-01-21T07:42:37.025Z,45.75
2023-01-21T07:45:04.139Z,48.70
2023-01-21T07:47:30.973Z,45.10
2023-01-21T07:49:57.779Z,44.15
2023-01-21T07:52:24.716Z,42.40
2023-01-21T07:54:51.499Z,42.00
2023-01-21T07:57:18.278Z,42.30
2023-01-21T07:59:45.086Z,42.30
2023-01-21T08:02:12.885Z,37.67
2023-01-21T08:04:39.903Z,39.72
2023-01-21T08:07:11.865Z,45.60
2023-01-21T08:09:40.093Z,41.55
2023-01-21T08:12:08.870Z,46.45
2023-01-21T08:14:35.947Z,57.55
2023-01-21T08:17:02.731Z,41.53
2023-01-21T08:19:29.553Z,48.88
2023-01-21T08:21:56.398Z,55.58
2023-01-21T08:24:23.171Z,50.10
2023-01-21T08:26:49.959Z,46.75
2023-01-21T08:29:16.993Z,62.97
2023-01-21T08:31:43.863Z,53.10
2023-01-21T08:34:10.774Z,52.22
2023-01-21T08:36:38.957Z,50.35
2023-01-21T08:39:06.303Z,56.38
2023-01-21T08:41:33.776Z,53.65
2023-01-21T08:44:00.772Z,60.65
2023-01-21T08:46:27.578Z,63.42
2023-01-21T08:48:54.339Z,61.38
2023-01-21T08:51:21.163Z,48.55
2023-01-21T08:53:50.219Z,50.30
2023-01-21T08:56:17.551Z,52.55
2023-01-21T08:58:44.726Z,66.57
2023-01-21T09:01:15.438Z,58.85
2023-01-21T09:03:42.377Z,54.30
2023-01-21T09:06:11.412Z,54.88
2023-01-21T09:08:38.209Z,55.90
2023-01-21T09:11:06.817Z,55.35
2023-01-21T09:13:39.922Z,67.95
2023-01-21T09:16:19.795Z,58.85
2023-01-21T09:18:47.516Z,56.97
2023-01-21T09:21:15.099Z,56.17
2023-01-21T09:23:42.396Z,64.75
2023-01-21T09:26:18.653Z,58.50
2023-01-21T09:28:51.523Z,67.90
2023-01-21T09:31:21.663Z,61.08
2023-01-21T09:33:53.032Z,64.55
2023-01-21T09:36:23.680Z,61.40
2023-01-21T09:38:51.662Z,54.47
2023-01-21T09:41:44.214Z,72.95
2023-01-21T09:47:23.084Z,59.42
2023-01-21T09:49:55.510Z,62.65
2023-01-21T09:52:56.037Z,72.50
2023-01-21T09:55:32.551Z,72.00
2023-01-21T09:58:47.242Z,76.57
2023-01-21T10:01:26.634Z,71.43
2023-01-21T10:04:39.090Z,61.83
2023-01-21T10:07:30.147Z,59.63
2023-01-21T10:10:22.968Z,70.05
2023-01-21T10:13:36.081Z,58.60
2023-01-21T10:16:09.448Z,64.60
2023-01-21T10:18:40.478Z,65.13
2023-01-21T10:21:31.140Z,64.43
2023-01-21T10:24:10.915Z,58.17
2023-01-21T10:26:37.708Z,65.05
2023-01-21T10:29:05.287Z,55.40
2023-01-21T10:31:42.783Z,58.78
2023-01-21T10:34:18.453Z,52.83
2023-01-21T10:37:35.118Z,57.15
2023-01-21T10:40:39.881Z,58.72
2023-01-21T10:43:25.000Z,61.33
2023-01-21T10:46:03.555Z,62.55
2023-01-21T10:48:49.075Z,52.83
2023-01-21T10:51:27.825Z,51.10
2023-01-21T10:54:17.492Z,63.53
2023-01-21T10:57:34.183Z,60.55
2023-01-21T11:00:04.328Z,54.38
2023-01-21T11:02:33.673Z,56.22
2023-01-21T11:05:05.426Z,54.08
2023-01-21T11:07:40.121Z,59.67
2023-01-21T11:10:08.244Z,61.97
2023-01-21T11:12:35.904Z,64.55
2023-01-21T11:15:13.979Z,54.58
2023-01-21T11:17:44.908Z,48.53
2023-01-21T11:20:25.527Z,63.20
2023-01-21T11:22:52.332Z,65.68
2023-01-21T11:25:42.034Z,62.70
2023-01-21T11:28:29.072Z,56.45
2023-01-21T11:31:24.870Z,61.83
2023-01-21T11:33:52.701Z,63.88
2023-01-21T11:36:21.316Z,61.25
2023-01-21T11:39:08.174Z,48.80
2023-01-21T11:41:35.698Z,51.65
2023-01-21T11:44:28.851Z,51.42
2023-01-21T11:46:55.647Z,55.05
2023-01-21T11:49:34.894Z,51.58
2023-01-21T11:52:18.779Z,46.33
2023-01-21T11:54:46.919Z,52.70
2023-01-21T11:57:28.957Z,51.80
2023-01-21T12:00:07.643Z,52.05
2023-01-21T12:02:44.556Z,45.95
2023-01-21T12:05:26.192Z,43.33
2023-01-21T12:07:53.264Z,47.30
2023-01-21T12:10:44.314Z,43.97
2023-01-21T12:13:52.857Z,48.17
2023-01-21T12:16:36.122Z,46.08
2023-01-21T12:19:23.424Z,43.67
2023-01-21T12:22:22.377Z,46.05
2023-01-21T12:25:48.015Z,51.03
2023-01-21T12:28:48.055Z,48.20
2023-01-21T12:31:43.555Z,44.53
2023-01-21T12:34:24.465Z,38.90
2023-01-21T12:37:19.472Z,46.70
2023-01-21T12:39:49.091Z,47.72
2023-01-21T12:42:37.635Z,47.65
2023-01-21T12:45:18.038Z,44.42
2023-01-21T12:47:54.853Z,46.05
2023-01-21T12:50:39.518Z,36.13
2023-01-21T12:53:33.052Z,47.58
2023-01-21T12:56:34.978Z,39.75
2023-01-21T12:59:07.803Z,43.37
2023-01-21T13:01:46.557Z,53.35
2023-01-21T13:04:33.119Z,48.55
2023-01-21T13:07:08.628Z,50.20
2023-01-21T13:10:16.914Z,48.72
2023-01-21T13:12:56.033Z,44.78
2023-01-21T13:15:32.064Z,46.30
2023-01-21T13:18:03.091Z,39.58
2023-01-21T13:20:34.560Z,47.17
2023-01-21T13:23:31.235Z,44.72
2023-01-21T13:26:31.837Z,44.15
2023-01-21T13:29:16.721Z,40.58
2023-01-21T13:32:14.464Z,49.38
2023-01-21T13:35:23.515Z,37.00
2023-01-21T13:38:05.251Z,43.78
2023-01-21T13:40:53.332Z,45.67
2023-01-21T13:43:41.107Z,33.65
2023-01-21T13:46:25.737Z,37.97
2023-01-21T13:49:01.567Z,37.88
2023-01-21T13:51:43.829Z,37.75
2023-01-21T13:54:36.341Z,41.05
2023-01-21T13:57:35.396Z,37.75
2023-01-21T14:00:13.952Z,40.28
2023-01-21T14:03:12.369Z,33.97
2023-01-21T14:06:10.048Z,34.55
2023-01-21T14:09:05.062Z,36.05
2023-01-21T14:12:01.976Z,39.67
2023-01-21T14:14:55.644Z,37.03
2023-01-21T14:18:14.045Z,33.42
2023-01-21T14:20:50.202Z,33.38
2023-01-21T14:23:23.664Z,35.03
2023-01-21T14:25:56.262Z,35.20
2023-01-21T14:28:45.073Z,30.95
2023-01-21T14:31:27.141Z,29.08
2023-01-21T14:34:17.889Z,36.08
2023-01-21T14:36:50.597Z,33.50
2023-01-21T14:39:32.458Z,30.33
2023-01-21T14:42:14.627Z,28.30
2023-01-21T14:44:49.543Z,35.10
2023-01-21T14:47:31.357Z,25.98
2023-01-21T14:49:59.670Z,25.00
2023-01-21T14:52:33.549Z,25.60
2023-01-21T14:55:01.184Z,26.35
2023-01-21T14:57:32.036Z,31.45
2023-01-21T15:00:28.164Z,26.95
2023-01-21T15:03:14.011Z,31.15
2023-01-21T15:05:44.633Z,27.08
2023-01-21T15:08:32.826Z,28.05
2023-01-21T15:11:05.383Z,29.85
2023-01-21T15:13:39.705Z,27.13
2023-01-21T15:16:15.072Z,30.58
2023-01-21T15:19:12.829Z,28.52
2023-01-21T15:21:45.425Z,26.10
2023-01-21T15:24:26.918Z,30.42
2023-01-21T15:27:23.446Z,27.90
2023-01-21T15:29:56.877Z,31.52
2023-01-21T15:32:33.376Z,32.35
2023-01-21T15:35:24.760Z,28.15
2023-01-21T15:38:00.844Z,27.67
2023-01-21T15:40:36.846Z,29.55
2023-01-21T15:43:20.623Z,31.35
2023-01-21T15:46:02.788Z,29.42
2023-01-21T15:48:57.184Z,31.08
2023-01-21T15:51:27.052Z,28.92
2023-01-21T15:54:04.367Z,26.88
2023-01-21T15:57:08.242Z,30.13
2023-01-21T16:00:29.293Z,29.42
2023-01-21T16:03:00.730Z,27.65
2023-01-21T16:05:57.882Z,28.92
2023-01-21T16:08:46.165Z,27.48
2023-01-21T16:11:23.061Z,29.70
2023-01-21T16:13:59.592Z,35.92
2023-01-21T16:16:55.533Z,36.88
2023-01-21T16:19:39.251Z,29.13
2023-01-21T16:22:09.959Z,29.65
2023-01-21T16:24:47.348Z,35.03
2023-01-21T16:27:25.828Z,39.03
2023-01-21T16:30:06.249Z,38.08
2023-01-21T16:32:33.554Z,36.78
2023-01-21T16:35:00.846Z,38.70
2023-01-21T16:37:30.329Z,33.85
2023-01-21T16:40:32.256Z,33.67
2023-01-21T16:43:20.933Z,29.33
2023-01-21T16:45:55.073Z,36.40
2023-01-21T16:48:33.337Z,34.85
2023-01-21T16:51:01.267Z,33.60
2023-01-21T16:53:28.274Z,41.17
2023-01-21T16:55:58.051Z,41.65
2023-01-21T16:58:32.318Z,34.83
2023-01-21T17:01:21.113Z,33.17
2023-01-21T17:03:48.037Z,29.80
2023-01-21T17:06:29.446Z,26.00
2023-01-21T17:09:01.471Z,27.27
2023-01-21T17:11:28.711Z,20.25
2023-01-21T17:13:55.540Z,24.65
2023-01-21T17:16:29.031Z,22.25
2023-01-21T17:19:03.236Z,24.90
2023-01-21T17:21:43.611Z,23.85
2023-01-21T17:24:21.201Z,25.35
2023-01-21T17:26:54.024Z,25.88
2023-01-21T17:29:31.189Z,25.92
2023-01-21T17:32:33.475Z,25.35
2023-01-21T17:35:17.661Z,23.40
2023-01-21T17:37:53.267Z,25.40
2023-01-21T17:40:37.979Z,26.83
2023-01-21T17:43:21.921Z,24.92
2023-01-21T17:45:50.984Z,24.35
2023-01-21T17:48:36.111Z,25.33
2023-01-21T17:51:14.107Z,26.38
2023-01-21T17:53:52.461Z,25.75
2023-01-21T17:56:39.543Z,27.55
2023-01-21T17:59:34.810Z,27.30
2023-01-21T18:02:11.324Z,25.75
2023-01-21T18:04:39.182Z,25.13
2023-01-21T18:07:27.451Z,23.10
2023-01-21T18:09:59.377Z,25.42
2023-01-21T18:12:26.206Z,25.98
2023-01-21T18:14:54.034Z,24.63
2023-01-21T18:17:24.349Z,23.42
2023-01-21T18:19:51.426Z,30.27
2023-01-21T18:22:28.160Z,25.50
2023-01-21T18:24:55.257Z,28.35
2023-01-21T18:27:26.016Z,31.90
2023-01-21T18:29:53.519Z,35.70
2023-01-21T18:32:20.331Z,37.67
2023-01-21T18:34:47.128Z,36.80
2023-01-21T18:37:16.910Z,31.20
2023-01-21T18:39:43.860Z,35.00
2023-01-21T18:42:15.174Z,35.67
2023-01-21T18:44:42.903Z,33.93
2023-01-21T18:47:20.388Z,35.08
2023-01-21T18:49:49.643Z,30.42
2023-01-21T18:52:20.864Z,38.60
2023-01-21T18:54:47.617Z,33.28
2023-01-21T18:57:20.523Z,34.42
2023-01-21T18:59:47.553Z,34.10
2023-01-21T19:02:18.338Z,33.53
2023-01-21T19:04:46.677Z,31.90
2023-01-21T19:07:22.618Z,32.92
2023-01-21T19:09:51.032Z,33.33
2023-01-21T19:12:22.822Z,35.65
2023-01-21T19:14:49.794Z,30.58
2023-01-21T19:17:26.960Z,29.15
2023-01-21T19:19:54.445Z,33.05
2023-01-21T19:22:21.728Z,30.13
2023-01-21T19:24:49.087Z,27.30
2023-01-21T19:27:28.700Z,30.02
2023-01-21T19:29:55.916Z,29.73
2023-01-21T19:32:22.734Z,29.98
2023-01-21T19:34:49.546Z,26.75
2023-01-21T19:37:20.230Z,29.40
2023-01-21T19:39:47.031Z,28.60
2023-01-21T19:42:15.807Z,24.90
2023-01-21T19:44:43.220Z,25.48
2023-01-21T19:47:29.558Z,29.00
2023-01-21T19:49:56.630Z,27.20
2023-01-21T19:52:23.523Z,27.05
2023-01-21T19:54:50.340Z,26.48
2023-01-21T19:57:17.781Z,25.88
2023-01-21T19:59:45.417Z,26.00
2023-01-21T20:02:12.491Z,27.55
2023-01-21T20:04:40.636Z,27.83
2023-01-21T20:07:12.878Z,27.58
2023-01-21T20:12:06.997Z,26.98
2023-01-21T20:14:33.868Z,32.22
2023-01-21T20:17:02.830Z,33.85
2023-01-21T20:19:29.787Z,32.35
2023-01-21T20:22:02.127Z,28.17
2023-01-21T20:24:30.208Z,30.98
2023-01-21T20:26:58.423Z,35.75
2023-01-21T20:29:26.910Z,33.95
2023-01-21T20:31:54.294Z,36.40
2023-01-21T20:34:21.277Z,43.03
2023-01-21T20:36:49.634Z,34.78
2023-01-21T20:39:16.565Z,37.90
2023-01-21T20:41:43.784Z,43.15
2023-01-21T20:44:11.084Z,41.40
2023-01-21T20:46:39.429Z,44.78
2023-01-21T20:49:06.307Z,58.10
2023-01-21T20:51:33.234Z,40.65
2023-01-21T20:54:00.098Z,40.10
2023-01-21T20:56:32.062Z,41.25
2023-01-21T20:58:59.453Z,39.90
2023-01-21T21:01:27.975Z,42.63
2023-01-21T21:03:54.794Z,46.50
2023-01-21T21:06:26.202Z,41.97
2023-01-21T21:08:54.418Z,47.90
2023-01-21T21:11:21.383Z,47.70
2023-01-21T21:13:51.788Z,45.13
2023-01-21T21:16:24.381Z,42.60
2023-01-21T21:18:51.579Z,43.83
2023-01-21T21:21:22.456Z,47.08
2023-01-21T21:23:51.551Z,48.15
2023-01-21T21:26:24.151Z,47.80
2023-01-21T21:28:57.206Z,43.25
2023-01-21T21:31:25.726Z,41.17
2023-01-21T21:33:52.749Z,52.60
2023-01-21T21:36:23.202Z,40.97
2023-01-21T21:38:52.028Z,41.30
2023-01-21T21:41:40.847Z,45.08
2023-01-21T21:44:09.391Z,43.45
2023-01-21T21:46:58.618Z,51.17
2023-01-21T21:49:25.779Z,53.42
2023-01-21T21:51:52.914Z,46.63
2023-01-21T21:54:19.844Z,57.05
2023-01-21T21:56:47.608Z,50.58
2023-01-21T21:59:15.292Z,50.20
2023-01-21T22:01:43.576Z,40.47
2023-01-21T22:04:10.950Z,40.85
2023-01-21T22:06:38.141Z,41.65
2023-01-21T22:09:05.365Z,49.13
2023-01-21T22:11:32.096Z,54.33
2023-01-21T22:14:03.516Z,43.58
2023-01-21T22:16:31.680Z,46.17
2023-01-21T22:19:00.055Z,48.35
2023-01-21T22:21:33.194Z,39.85
2023-01-21T22:24:06.716Z,50.67
2023-01-21T22:26:35.679Z,37.88
2023-01-21T22:29:05.027Z,29.85
2023-01-21T22:31:33.114Z,44.28
2023-01-21T22:34:00.654Z,51.60
2023-01-21T22:36:30.105Z,47.20
2023-01-21T22:38:57.215Z,45.17
2023-01-21T22:41:25.086Z,44.70
2023-01-21T22:43:53.010Z,42.95
2023-01-21T22:46:26.575Z,40.42
2023-01-21T22:48:54.491Z,46.85
2023-01-21T22:51:22.798Z,53.88
2023-01-21T22:53:50.702Z,47.47
2023-01-21T22:56:25.390Z,46.30
2023-01-21T22:58:59.388Z,42.03
2023-01-21T23:01:31.120Z,25.35
2023-01-21T23:03:59.525Z,47.08
2023-01-21T23:06:26.723Z,42.70
2023-01-21T23:08:53.497Z,46.67
2023-01-21T23:11:20.522Z,52.22
2023-01-21T23:13:49.527Z,47.85
2023-01-21T23:16:21.640Z,47.63
2023-01-21T23:18:49.222Z,26.25
2023-01-21T23:21:20.424Z,40.85
2023-01-21T23:23:48.603Z,45.40
2023-01-21T23:26:16.270Z,50.22
2023-01-21T23:28:43.160Z,46.08
2023-01-21T23:31:15.450Z,44.75
2023-01-21T23:33:42.682Z,30.02
2023-01-21T23:36:13.088Z,38.55
2023-01-21T23:38:41.353Z,46.72
2023-01-21T23:41:14.031Z,45.15
2023-01-21T23:43:41.062Z,44.30
2023-01-21T23:46:16.545Z,45.42
2023-01-21T23:48:43.945Z,38.00
2023-01-21T23:51:14.998Z,45.88
2023-01-21T23:53:42.340Z,43.92
2023-01-21T23:56:11.070Z,46.63
2023-01-21T23:58:37.962Z,42.70
